sensor_id;sensor_type;location;lat;lon;timestamp;temperature;humidity
28171;DHT22;15458;53.346;-1.688;2024-02-16T00:02:08;11.20;99.90
28171;DHT22;15458;53.346;-1.688;2024-02-16T00:04:34;11.10;99.90
28171;DHT22;15458;53.346;-1.688;2024-02-16T00:07:00;11.10;99.90
28171;DHT22;15458;53.346;-1.688;2024-02-16T00:09:25;11.10;99.90
28171;DHT22;15458;53.346;-1.688;2024-02-16T00:11:52;11.10;99.90
28171;DHT22;15458;53.346;-1.688;2024-02-16T00:14:18;11.10;99.90
28171;DHT22;15458;53.346;-1.688;2024-02-16T00:16:44;11.10;99.90
28171;DHT22;15458;53.346;-1.688;2024-02-16T00:19:10;11.10;99.90
28171;DHT22;15458;53.346;-1.688;2024-02-16T00:21:36;11.10;99.90
28171;DHT22;15458;53.346;-1.688;2024-02-16T00:24:02;11.10;99.90
28171;DHT22;15458;53.346;-1.688;2024-02-16T00:26:28;11.10;99.90
28171;DHT22;15458;53.346;-1.688;2024-02-16T00:28:54;11.10;99.90
28171;DHT22;15458;53.346;-1.688;2024-02-16T00:31:19;11.10;99.90
28171;DHT22;15458;53.346;-1.688;2024-02-16T00:33:45;11.10;99.90
28171;DHT22;15458;53.346;-1.688;2024-02-16T00:36:11;11.10;99.90
28171;DHT22;15458;53.346;-1.688;2024-02-16T00:38:36;11.10;99.90
28171;DHT22;15458;53.346;-1.688;2024-02-16T00:41:03;11.10;99.90
28171;DHT22;15458;53.346;-1.688;2024-02-16T00:43:30;11.10;99.90
28171;DHT22;15458;53.346;-1.688;2024-02-16T00:45:55;11.10;99.90
28171;DHT22;15458;53.346;-1.688;2024-02-16T00:48:21;11.10;99.90
28171;DHT22;15458;53.346;-1.688;2024-02-16T00:50:47;11.10;99.90
28171;DHT22;15458;53.346;-1.688;2024-02-16T00:53:13;11.20;99.90
28171;DHT22;15458;53.346;-1.688;2024-02-16T00:55:38;11.20;99.90
28171;DHT22;15458;53.346;-1.688;2024-02-16T00:58:07;11.20;99.90
28171;DHT22;15458;53.346;-1.688;2024-02-16T01:00:32;11.20;99.90
28171;DHT22;15458;53.346;-1.688;2024-02-16T01:02:58;11.20;99.90
28171;DHT22;15458;53.346;-1.688;2024-02-16T01:05:24;11.20;99.90
28171;DHT22;15458;53.346;-1.688;2024-02-16T01:07:50;11.20;99.90
28171;DHT22;15458;53.346;-1.688;2024-02-16T01:10:15;11.20;99.90
28171;DHT22;15458;53.346;-1.688;2024-02-16T01:12:41;11.20;99.90
28171;DHT22;15458;53.346;-1.688;2024-02-16T01:15:07;11.20;99.90
28171;DHT22;15458;53.346;-1.688;2024-02-16T01:17:33;11.10;99.90
28171;DHT22;15458;53.346;-1.688;2024-02-16T01:19:59;11.20;99.90
28171;DHT22;15458;53.346;-1.688;2024-02-16T01:22:25;11.20;99.90
28171;DHT22;15458;53.346;-1.688;2024-02-16T01:24:51;11.10;99.90
28171;DHT22;15458;53.346;-1.688;2024-02-16T01:27:16;11.10;99.90
28171;DHT22;15458;53.346;-1.688;2024-02-16T01:29:42;11.10;99.90
28171;DHT22;15458;53.346;-1.688;2024-02-16T01:32:09;11.10;99.90
28171;DHT22;15458;53.346;-1.688;2024-02-16T01:34:35;11.10;99.90
28171;DHT22;15458;53.346;-1.688;2024-02-16T01:37:00;11.10;99.90
28171;DHT22;15458;53.346;-1.688;2024-02-16T01:39:26;11.10;99.90
28171;DHT22;15458;53.346;-1.688;2024-02-16T01:41:52;11.10;99.90
28171;DHT22;15458;53.346;-1.688;2024-02-16T01:44:18;11.10;99.90
28171;DHT22;15458;53.346;-1.688;2024-02-16T01:46:43;11.10;99.90
28171;DHT22;15458;53.346;-1.688;2024-02-16T01:49:10;11.10;99.90
28171;DHT22;15458;53.346;-1.688;2024-02-16T01:51:37;11.10;99.90
28171;DHT22;15458;53.346;-1.688;2024-02-16T01:54:02;11.00;99.90
28171;DHT22;15458;53.346;-1.688;2024-02-16T01:56:29;11.10;99.90
28171;DHT22;15458;53.346;-1.688;2024-02-16T01:58:54;11.10;99.90
28171;DHT22;15458;53.346;-1.688;2024-02-16T02:01:20;11.00;99.90
28171;DHT22;15458;53.346;-1.688;2024-02-16T02:03:46;11.00;99.90
28171;DHT22;15458;53.346;-1.688;2024-02-16T02:06:12;11.00;99.90
28171;DHT22;15458;53.346;-1.688;2024-02-16T02:08:38;11.00;99.90
28171;DHT22;15458;53.346;-1.688;2024-02-16T02:11:04;11.00;99.90
28171;DHT22;15458;53.346;-1.688;2024-02-16T02:13:31;10.90;99.90
28171;DHT22;15458;53.346;-1.688;2024-02-16T02:15:58;10.90;99.90
28171;DHT22;15458;53.346;-1.688;2024-02-16T02:18:24;10.90;99.90
28171;DHT22;15458;53.346;-1.688;2024-02-16T02:20:50;10.90;99.90
28171;DHT22;15458;53.346;-1.688;2024-02-16T02:23:16;10.90;99.90
28171;DHT22;15458;53.346;-1.688;2024-02-16T02:25:42;10.90;99.90
28171;DHT22;15458;53.346;-1.688;2024-02-16T02:28:07;10.90;99.90
28171;DHT22;15458;53.346;-1.688;2024-02-16T02:30:33;10.80;99.90
28171;DHT22;15458;53.346;-1.688;2024-02-16T02:32:59;10.90;99.90
28171;DHT22;15458;53.346;-1.688;2024-02-16T02:35:25;10.90;99.90
28171;DHT22;15458;53.346;-1.688;2024-02-16T02:37:51;10.90;99.90
28171;DHT22;15458;53.346;-1.688;2024-02-16T02:40:16;10.80;99.90
28171;DHT22;15458;53.346;-1.688;2024-02-16T02:42:42;10.80;99.90
28171;DHT22;15458;53.346;-1.688;2024-02-16T02:45:09;10.80;99.90
28171;DHT22;15458;53.346;-1.688;2024-02-16T02:47:35;10.80;99.90
28171;DHT22;15458;53.346;-1.688;2024-02-16T02:50:01;10.80;99.90
28171;DHT22;15458;53.346;-1.688;2024-02-16T02:52:26;10.80;99.90
28171;DHT22;15458;53.346;-1.688;2024-02-16T02:54:52;10.80;99.90
28171;DHT22;15458;53.346;-1.688;2024-02-16T02:57:18;10.80;99.90
28171;DHT22;15458;53.346;-1.688;2024-02-16T02:59:43;10.80;99.90
28171;DHT22;15458;53.346;-1.688;2024-02-16T03:02:10;10.80;99.90
28171;DHT22;15458;53.346;-1.688;2024-02-16T03:04:36;10.80;99.90
28171;DHT22;15458;53.346;-1.688;2024-02-16T03:07:02;10.80;99.90
28171;DHT22;15458;53.346;-1.688;2024-02-16T03:09:28;10.80;99.90
28171;DHT22;15458;53.346;-1.688;2024-02-16T03:11:54;10.80;99.90
28171;DHT22;15458;53.346;-1.688;2024-02-16T03:14:19;10.80;99.90
28171;DHT22;15458;53.346;-1.688;2024-02-16T03:16:45;10.80;99.90
28171;DHT22;15458;53.346;-1.688;2024-02-16T03:19:11;10.70;99.90
28171;DHT22;15458;53.346;-1.688;2024-02-16T03:21:37;10.70;99.90
28171;DHT22;15458;53.346;-1.688;2024-02-16T03:24:03;10.70;99.90
28171;DHT22;15458;53.346;-1.688;2024-02-16T03:26:29;10.70;99.90
28171;DHT22;15458;53.346;-1.688;2024-02-16T03:28:55;10.70;99.90
28171;DHT22;15458;53.346;-1.688;2024-02-16T03:31:22;10.70;99.90
28171;DHT22;15458;53.346;-1.688;2024-02-16T03:33:50;10.70;99.90
28171;DHT22;15458;53.346;-1.688;2024-02-16T03:36:17;10.70;99.90
28171;DHT22;15458;53.346;-1.688;2024-02-16T03:38:45;10.60;99.90
28171;DHT22;15458;53.346;-1.688;2024-02-16T03:41:24;10.60;99.90
28171;DHT22;15458;53.346;-1.688;2024-02-16T03:43:50;10.60;99.90
28171;DHT22;15458;53.346;-1.688;2024-02-16T03:46:17;10.60;99.90
28171;DHT22;15458;53.346;-1.688;2024-02-16T03:48:43;10.60;99.90
28171;DHT22;15458;53.346;-1.688;2024-02-16T03:51:10;10.60;99.90
28171;DHT22;15458;53.346;-1.688;2024-02-16T03:53:35;10.60;99.90
28171;DHT22;15458;53.346;-1.688;2024-02-16T03:56:01;10.60;99.90
28171;DHT22;15458;53.346;-1.688;2024-02-16T03:58:27;10.60;99.90
28171;DHT22;15458;53.346;-1.688;2024-02-16T04:00:53;10.50;99.90
28171;DHT22;15458;53.346;-1.688;2024-02-16T04:03:19;10.60;99.90
28171;DHT22;15458;53.346;-1.688;2024-02-16T04:05:45;10.50;99.90
28171;DHT22;15458;53.346;-1.688;2024-02-16T04:08:10;10.50;99.90
28171;DHT22;15458;53.346;-1.688;2024-02-16T04:10:36;10.50;99.90
28171;DHT22;15458;53.346;-1.688;2024-02-16T04:13:03;10.50;99.90
28171;DHT22;15458;53.346;-1.688;2024-02-16T04:15:30;10.50;99.90
28171;DHT22;15458;53.346;-1.688;2024-02-16T04:17:55;10.50;99.90
28171;DHT22;15458;53.346;-1.688;2024-02-16T04:20:21;10.50;99.90
28171;DHT22;15458;53.346;-1.688;2024-02-16T04:22:47;10.50;99.90
28171;DHT22;15458;53.346;-1.688;2024-02-16T04:25:13;10.50;99.90
28171;DHT22;15458;53.346;-1.688;2024-02-16T04:27:39;10.50;99.90
28171;DHT22;15458;53.346;-1.688;2024-02-16T04:30:05;10.50;99.90
28171;DHT22;15458;53.346;-1.688;2024-02-16T04:32:32;10.40;99.90
28171;DHT22;15458;53.346;-1.688;2024-02-16T04:34:58;10.40;99.90
28171;DHT22;15458;53.346;-1.688;2024-02-16T04:37:25;10.40;99.90
28171;DHT22;15458;53.346;-1.688;2024-02-16T04:39:51;10.30;99.90
28171;DHT22;15458;53.346;-1.688;2024-02-16T04:42:17;10.30;99.90
28171;DHT22;15458;53.346;-1.688;2024-02-16T04:44:43;10.30;99.90
28171;DHT22;15458;53.346;-1.688;2024-02-16T04:47:09;10.30;99.90
28171;DHT22;15458;53.346;-1.688;2024-02-16T04:49:35;10.30;99.90
28171;DHT22;15458;53.346;-1.688;2024-02-16T04:52:02;10.30;99.90
28171;DHT22;15458;53.346;-1.688;2024-02-16T04:54:29;10.30;99.90
28171;DHT22;15458;53.346;-1.688;2024-02-16T04:56:54;10.20;99.90
28171;DHT22;15458;53.346;-1.688;2024-02-16T04:59:20;10.20;99.90
28171;DHT22;15458;53.346;-1.688;2024-02-16T05:01:46;10.20;99.90
28171;DHT22;15458;53.346;-1.688;2024-02-16T05:04:13;10.10;99.90
28171;DHT22;15458;53.346;-1.688;2024-02-16T05:06:44;10.10;99.90
28171;DHT22;15458;53.346;-1.688;2024-02-16T05:09:13;10.10;99.90
28171;DHT22;15458;53.346;-1.688;2024-02-16T05:11:42;10.10;99.90
28171;DHT22;15458;53.346;-1.688;2024-02-16T05:14:09;10.00;99.90
28171;DHT22;15458;53.346;-1.688;2024-02-16T05:16:37;10.00;99.90
28171;DHT22;15458;53.346;-1.688;2024-02-16T05:19:03;9.90;99.90
28171;DHT22;15458;53.346;-1.688;2024-02-16T05:21:29;9.90;99.90
28171;DHT22;15458;53.346;-1.688;2024-02-16T05:23:54;9.90;99.90
28171;DHT22;15458;53.346;-1.688;2024-02-16T05:26:20;9.80;99.90
28171;DHT22;15458;53.346;-1.688;2024-02-16T05:28:46;9.80;99.90
28171;DHT22;15458;53.346;-1.688;2024-02-16T05:31:17;9.80;99.90
28171;DHT22;15458;53.346;-1.688;2024-02-16T05:33:48;9.80;99.90
28171;DHT22;15458;53.346;-1.688;2024-02-16T05:36:20;9.70;99.90
28171;DHT22;15458;53.346;-1.688;2024-02-16T05:38:49;9.70;99.90
28171;DHT22;15458;53.346;-1.688;2024-02-16T05:41:16;9.60;99.90
28171;DHT22;15458;53.346;-1.688;2024-02-16T05:43:44;9.60;99.90
28171;DHT22;15458;53.346;-1.688;2024-02-16T05:46:14;9.60;99.90
28171;DHT22;15458;53.346;-1.688;2024-02-16T05:48:39;9.60;99.90
28171;DHT22;15458;53.346;-1.688;2024-02-16T05:51:06;9.60;99.90
28171;DHT22;15458;53.346;-1.688;2024-02-16T05:53:32;9.60;99.90
28171;DHT22;15458;53.346;-1.688;2024-02-16T05:55:59;9.60;99.90
28171;DHT22;15458;53.346;-1.688;2024-02-16T05:58:25;9.60;99.90
28171;DHT22;15458;53.346;-1.688;2024-02-16T06:00:51;9.50;99.90
28171;DHT22;15458;53.346;-1.688;2024-02-16T06:03:17;9.50;99.90
28171;DHT22;15458;53.346;-1.688;2024-02-16T06:05:43;9.40;99.90
28171;DHT22;15458;53.346;-1.688;2024-02-16T06:08:12;9.50;99.90
28171;DHT22;15458;53.346;-1.688;2024-02-16T06:10:38;9.50;99.90
28171;DHT22;15458;53.346;-1.688;2024-02-16T06:13:04;9.40;99.90
28171;DHT22;15458;53.346;-1.688;2024-02-16T06:15:30;9.40;99.90
28171;DHT22;15458;53.346;-1.688;2024-02-16T06:17:56;9.40;99.90
28171;DHT22;15458;53.346;-1.688;2024-02-16T06:20:22;9.40;99.90
28171;DHT22;15458;53.346;-1.688;2024-02-16T06:22:48;9.40;99.90
28171;DHT22;15458;53.346;-1.688;2024-02-16T06:25:14;9.40;99.90
28171;DHT22;15458;53.346;-1.688;2024-02-16T06:27:40;9.40;99.90
28171;DHT22;15458;53.346;-1.688;2024-02-16T06:30:07;9.30;99.90
28171;DHT22;15458;53.346;-1.688;2024-02-16T06:32:38;9.30;99.90
28171;DHT22;15458;53.346;-1.688;2024-02-16T06:35:04;9.30;99.90
28171;DHT22;15458;53.346;-1.688;2024-02-16T06:37:30;9.30;99.90
28171;DHT22;15458;53.346;-1.688;2024-02-16T06:39:57;9.20;99.90
28171;DHT22;15458;53.346;-1.688;2024-02-16T06:42:23;9.20;99.90
28171;DHT22;15458;53.346;-1.688;2024-02-16T06:44:48;9.20;99.90
28171;DHT22;15458;53.346;-1.688;2024-02-16T06:47:15;9.20;99.90
28171;DHT22;15458;53.346;-1.688;2024-02-16T06:49:41;9.20;99.90
28171;DHT22;15458;53.346;-1.688;2024-02-16T06:52:07;9.10;99.90
28171;DHT22;15458;53.346;-1.688;2024-02-16T06:54:35;9.10;99.90
28171;DHT22;15458;53.346;-1.688;2024-02-16T06:57:00;9.10;99.90
28171;DHT22;15458;53.346;-1.688;2024-02-16T06:59:27;9.10;99.90
28171;DHT22;15458;53.346;-1.688;2024-02-16T07:01:52;9.10;99.90
28171;DHT22;15458;53.346;-1.688;2024-02-16T07:04:18;9.10;99.90
28171;DHT22;15458;53.346;-1.688;2024-02-16T07:06:44;9.00;99.90
28171;DHT22;15458;53.346;-1.688;2024-02-16T07:09:10;9.00;99.90
28171;DHT22;15458;53.346;-1.688;2024-02-16T07:11:36;9.00;99.90
28171;DHT22;15458;53.346;-1.688;2024-02-16T07:14:03;8.90;99.90
28171;DHT22;15458;53.346;-1.688;2024-02-16T07:16:29;8.90;99.90
28171;DHT22;15458;53.346;-1.688;2024-02-16T07:18:56;8.90;99.90
28171;DHT22;15458;53.346;-1.688;2024-02-16T07:21:21;8.80;99.90
28171;DHT22;15458;53.346;-1.688;2024-02-16T07:23:48;8.80;99.90
28171;DHT22;15458;53.346;-1.688;2024-02-16T07:26:14;8.80;99.90
28171;DHT22;15458;53.346;-1.688;2024-02-16T07:28:40;8.70;99.90
28171;DHT22;15458;53.346;-1.688;2024-02-16T07:31:06;8.70;99.90
28171;DHT22;15458;53.346;-1.688;2024-02-16T07:33:31;8.60;99.90
28171;DHT22;15458;53.346;-1.688;2024-02-16T07:35:57;8.60;99.90
28171;DHT22;15458;53.346;-1.688;2024-02-16T07:38:23;8.60;99.90
28171;DHT22;15458;53.346;-1.688;2024-02-16T07:40:49;8.50;99.90
28171;DHT22;15458;53.346;-1.688;2024-02-16T07:43:16;8.50;99.90
28171;DHT22;15458;53.346;-1.688;2024-02-16T07:45:43;8.50;99.90
28171;DHT22;15458;53.346;-1.688;2024-02-16T07:48:08;8.50;99.90
28171;DHT22;15458;53.346;-1.688;2024-02-16T07:50:34;8.50;99.90
28171;DHT22;15458;53.346;-1.688;2024-02-16T07:53:00;8.40;99.90
28171;DHT22;15458;53.346;-1.688;2024-02-16T07:55:25;8.40;99.90
28171;DHT22;15458;53.346;-1.688;2024-02-16T07:57:52;8.40;99.90
28171;DHT22;15458;53.346;-1.688;2024-02-16T08:00:18;8.40;99.90
28171;DHT22;15458;53.346;-1.688;2024-02-16T08:02:44;8.40;99.90
28171;DHT22;15458;53.346;-1.688;2024-02-16T08:05:13;8.50;99.90
28171;DHT22;15458;53.346;-1.688;2024-02-16T08:07:40;8.50;99.90
28171;DHT22;15458;53.346;-1.688;2024-02-16T08:10:09;8.50;99.90
28171;DHT22;15458;53.346;-1.688;2024-02-16T08:12:35;8.50;99.90
28171;DHT22;15458;53.346;-1.688;2024-02-16T08:15:05;8.50;99.90
28171;DHT22;15458;53.346;-1.688;2024-02-16T08:17:35;8.50;99.90
28171;DHT22;15458;53.346;-1.688;2024-02-16T08:20:00;8.50;99.90
28171;DHT22;15458;53.346;-1.688;2024-02-16T08:22:26;8.50;99.90
28171;DHT22;15458;53.346;-1.688;2024-02-16T08:24:52;8.60;99.90
28171;DHT22;15458;53.346;-1.688;2024-02-16T08:27:18;8.60;99.90
28171;DHT22;15458;53.346;-1.688;2024-02-16T08:29:44;8.70;99.90
28171;DHT22;15458;53.346;-1.688;2024-02-16T08:32:10;8.70;99.90
28171;DHT22;15458;53.346;-1.688;2024-02-16T08:34:36;8.80;99.90
28171;DHT22;15458;53.346;-1.688;2024-02-16T08:37:03;8.80;99.90
28171;DHT22;15458;53.346;-1.688;2024-02-16T08:39:30;9.00;99.90
28171;DHT22;15458;53.346;-1.688;2024-02-16T08:41:58;9.00;99.90
28171;DHT22;15458;53.346;-1.688;2024-02-16T08:44:24;9.10;99.90
28171;DHT22;15458;53.346;-1.688;2024-02-16T08:46:50;9.20;99.90
28171;DHT22;15458;53.346;-1.688;2024-02-16T08:49:16;9.30;99.90
28171;DHT22;15458;53.346;-1.688;2024-02-16T08:51:42;9.30;99.90
28171;DHT22;15458;53.346;-1.688;2024-02-16T08:54:09;9.40;99.90
28171;DHT22;15458;53.346;-1.688;2024-02-16T08:56:38;9.50;99.90
28171;DHT22;15458;53.346;-1.688;2024-02-16T08:59:05;9.50;99.90
28171;DHT22;15458;53.346;-1.688;2024-02-16T09:01:35;9.60;99.90
28171;DHT22;15458;53.346;-1.688;2024-02-16T09:04:01;9.70;99.90
28171;DHT22;15458;53.346;-1.688;2024-02-16T09:06:28;9.70;99.90
28171;DHT22;15458;53.346;-1.688;2024-02-16T09:08:54;9.80;99.90
28171;DHT22;15458;53.346;-1.688;2024-02-16T09:11:20;9.80;99.90
28171;DHT22;15458;53.346;-1.688;2024-02-16T09:13:46;9.80;99.90
28171;DHT22;15458;53.346;-1.688;2024-02-16T09:16:12;9.80;99.90
28171;DHT22;15458;53.346;-1.688;2024-02-16T09:18:38;9.70;99.90
28171;DHT22;15458;53.346;-1.688;2024-02-16T09:21:05;9.70;99.90
28171;DHT22;15458;53.346;-1.688;2024-02-16T09:23:35;9.70;99.90
28171;DHT22;15458;53.346;-1.688;2024-02-16T09:26:01;9.70;99.90
28171;DHT22;15458;53.346;-1.688;2024-02-16T09:28:28;9.70;99.90
28171;DHT22;15458;53.346;-1.688;2024-02-16T09:30:57;9.70;99.90
28171;DHT22;15458;53.346;-1.688;2024-02-16T09:33:24;9.70;99.90
28171;DHT22;15458;53.346;-1.688;2024-02-16T09:35:52;9.70;99.90
28171;DHT22;15458;53.346;-1.688;2024-02-16T09:38:18;9.70;99.90
28171;DHT22;15458;53.346;-1.688;2024-02-16T09:40:44;9.70;99.90
28171;DHT22;15458;53.346;-1.688;2024-02-16T09:43:10;9.80;99.90
28171;DHT22;15458;53.346;-1.688;2024-02-16T09:45:36;9.90;99.90
28171;DHT22;15458;53.346;-1.688;2024-02-16T09:48:04;10.00;99.90
28171;DHT22;15458;53.346;-1.688;2024-02-16T09:50:33;10.00;99.90
28171;DHT22;15458;53.346;-1.688;2024-02-16T09:53:00;10.00;99.90
28171;DHT22;15458;53.346;-1.688;2024-02-16T09:55:32;10.20;99.90
28171;DHT22;15458;53.346;-1.688;2024-02-16T09:57:59;10.30;99.90
28171;DHT22;15458;53.346;-1.688;2024-02-16T10:00:25;10.60;99.90
28171;DHT22;15458;53.346;-1.688;2024-02-16T10:02:51;10.70;99.90
28171;DHT22;15458;53.346;-1.688;2024-02-16T10:08:55;11.00;99.90
28171;DHT22;15458;53.346;-1.688;2024-02-16T10:11:24;11.30;99.90
28171;DHT22;15458;53.346;-1.688;2024-02-16T10:13:59;11.40;99.90
28171;DHT22;15458;53.346;-1.688;2024-02-16T10:16:29;11.50;99.90
28171;DHT22;15458;53.346;-1.688;2024-02-16T10:18:56;11.50;99.90
28171;DHT22;15458;53.346;-1.688;2024-02-16T10:21:29;11.60;99.90
28171;DHT22;15458;53.346;-1.688;2024-02-16T10:24:03;11.70;99.90
28171;DHT22;15458;53.346;-1.688;2024-02-16T10:26:31;11.70;99.90
28171;DHT22;15458;53.346;-1.688;2024-02-16T10:28:57;11.90;99.90
28171;DHT22;15458;53.346;-1.688;2024-02-16T10:31:24;12.10;99.90
28171;DHT22;15458;53.346;-1.688;2024-02-16T10:34:04;12.20;99.90
28171;DHT22;15458;53.346;-1.688;2024-02-16T10:36:36;12.20;99.90
28171;DHT22;15458;53.346;-1.688;2024-02-16T10:39:03;12.20;99.90
28171;DHT22;15458;53.346;-1.688;2024-02-16T10:41:39;12.30;99.90
28171;DHT22;15458;53.346;-1.688;2024-02-16T10:44:05;12.60;99.90
28171;DHT22;15458;53.346;-1.688;2024-02-16T10:46:33;12.80;99.90
28171;DHT22;15458;53.346;-1.688;2024-02-16T10:49:03;12.90;99.90
28171;DHT22;15458;53.346;-1.688;2024-02-16T10:51:47;13.10;99.90
28171;DHT22;15458;53.346;-1.688;2024-02-16T10:54:18;13.20;99.90
28171;DHT22;15458;53.346;-1.688;2024-02-16T10:56:45;13.20;99.90
28171;DHT22;15458;53.346;-1.688;2024-02-16T10:59:11;13.20;99.90
28171;DHT22;15458;53.346;-1.688;2024-02-16T11:01:41;13.10;99.90
28171;DHT22;15458;53.346;-1.688;2024-02-16T11:04:08;13.00;99.90
28171;DHT22;15458;53.346;-1.688;2024-02-16T11:06:47;13.10;99.90
28171;DHT22;15458;53.346;-1.688;2024-02-16T11:11:54;13.20;99.90
28171;DHT22;15458;53.346;-1.688;2024-02-16T11:14:21;13.20;99.90
28171;DHT22;15458;53.346;-1.688;2024-02-16T11:16:48;13.10;99.90
28171;DHT22;15458;53.346;-1.688;2024-02-16T11:19:14;13.20;99.90
28171;DHT22;15458;53.346;-1.688;2024-02-16T11:22:03;13.20;99.90
28171;DHT22;15458;53.346;-1.688;2024-02-16T11:24:33;13.10;99.90
28171;DHT22;15458;53.346;-1.688;2024-02-16T11:27:02;13.00;99.90
28171;DHT22;15458;53.346;-1.688;2024-02-16T11:29:32;12.80;99.90
28171;DHT22;15458;53.346;-1.688;2024-02-16T11:31:58;12.80;99.90
28171;DHT22;15458;53.346;-1.688;2024-02-16T11:34:25;13.00;99.90
28171;DHT22;15458;53.346;-1.688;2024-02-16T11:36:58;13.30;99.90
28171;DHT22;15458;53.346;-1.688;2024-02-16T11:39:25;13.60;99.90
28171;DHT22;15458;53.346;-1.688;2024-02-16T11:42:05;14.00;99.90
28171;DHT22;15458;53.346;-1.688;2024-02-16T11:44:40;14.20;99.90
28171;DHT22;15458;53.346;-1.688;2024-02-16T11:47:08;14.40;99.90
28171;DHT22;15458;53.346;-1.688;2024-02-16T11:49:42;14.70;99.90
28171;DHT22;15458;53.346;-1.688;2024-02-16T11:52:11;14.90;99.90
28171;DHT22;15458;53.346;-1.688;2024-02-16T11:54:37;15.10;99.90
28171;DHT22;15458;53.346;-1.688;2024-02-16T11:57:04;15.30;99.90
28171;DHT22;15458;53.346;-1.688;2024-02-16T11:59:30;15.30;99.90
28171;DHT22;15458;53.346;-1.688;2024-02-16T12:01:58;15.40;99.90
28171;DHT22;15458;53.346;-1.688;2024-02-16T12:06:56;15.90;99.90
28171;DHT22;15458;53.346;-1.688;2024-02-16T12:09:22;16.00;99.90
28171;DHT22;15458;53.346;-1.688;2024-02-16T12:11:49;16.00;99.90
28171;DHT22;15458;53.346;-1.688;2024-02-16T12:14:20;16.10;99.90
28171;DHT22;15458;53.346;-1.688;2024-02-16T12:16:50;16.30;99.90
28171;DHT22;15458;53.346;-1.688;2024-02-16T12:19:18;16.50;99.90
28171;DHT22;15458;53.346;-1.688;2024-02-16T12:21:44;16.70;99.90
28171;DHT22;15458;53.346;-1.688;2024-02-16T12:24:10;16.90;99.90
28171;DHT22;15458;53.346;-1.688;2024-02-16T12:26:37;17.20;99.90
28171;DHT22;15458;53.346;-1.688;2024-02-16T12:29:02;17.10;99.90
28171;DHT22;15458;53.346;-1.688;2024-02-16T12:31:29;16.90;99.90
28171;DHT22;15458;53.346;-1.688;2024-02-16T12:33:55;16.80;99.90
28171;DHT22;15458;53.346;-1.688;2024-02-16T12:36:21;16.60;99.90
28171;DHT22;15458;53.346;-1.688;2024-02-16T12:38:49;16.60;99.90
28171;DHT22;15458;53.346;-1.688;2024-02-16T12:41:15;16.80;99.90
28171;DHT22;15458;53.346;-1.688;2024-02-16T12:43:41;16.90;99.90
28171;DHT22;15458;53.346;-1.688;2024-02-16T12:46:07;16.90;99.90
28171;DHT22;15458;53.346;-1.688;2024-02-16T12:48:33;16.60;99.90
28171;DHT22;15458;53.346;-1.688;2024-02-16T12:50:58;15.90;99.90
28171;DHT22;15458;53.346;-1.688;2024-02-16T12:53:27;15.40;99.90
28171;DHT22;15458;53.346;-1.688;2024-02-16T12:55:58;15.00;99.90
28171;DHT22;15458;53.346;-1.688;2024-02-16T12:58:25;14.70;99.90
28171;DHT22;15458;53.346;-1.688;2024-02-16T13:00:53;14.70;99.90
28171;DHT22;15458;53.346;-1.688;2024-02-16T13:03:19;14.90;99.90
28171;DHT22;15458;53.346;-1.688;2024-02-16T13:05:44;15.40;99.90
28171;DHT22;15458;53.346;-1.688;2024-02-16T13:08:11;15.70;99.90
28171;DHT22;15458;53.346;-1.688;2024-02-16T13:10:36;16.10;99.90
28171;DHT22;15458;53.346;-1.688;2024-02-16T13:13:10;16.30;99.90
28171;DHT22;15458;53.346;-1.688;2024-02-16T13:15:36;16.40;99.90
28171;DHT22;15458;53.346;-1.688;2024-02-16T13:18:02;16.50;99.90
28171;DHT22;15458;53.346;-1.688;2024-02-16T13:20:28;16.60;99.90
28171;DHT22;15458;53.346;-1.688;2024-02-16T13:22:54;16.60;99.90
28171;DHT22;15458;53.346;-1.688;2024-02-16T13:25:20;16.50;99.90
28171;DHT22;15458;53.346;-1.688;2024-02-16T13:27:46;16.40;99.90
28171;DHT22;15458;53.346;-1.688;2024-02-16T13:30:12;16.20;99.90
28171;DHT22;15458;53.346;-1.688;2024-02-16T13:32:38;16.20;99.90
28171;DHT22;15458;53.346;-1.688;2024-02-16T13:35:08;16.40;99.90
28171;DHT22;15458;53.346;-1.688;2024-02-16T13:37:34;16.40;99.90
28171;DHT22;15458;53.346;-1.688;2024-02-16T13:40:01;16.30;99.90
28171;DHT22;15458;53.346;-1.688;2024-02-16T13:42:29;16.20;99.90
28171;DHT22;15458;53.346;-1.688;2024-02-16T13:44:56;16.10;99.90
28171;DHT22;15458;53.346;-1.688;2024-02-16T13:47:23;15.90;99.90
28171;DHT22;15458;53.346;-1.688;2024-02-16T13:49:48;15.70;99.90
28171;DHT22;15458;53.346;-1.688;2024-02-16T13:52:15;15.40;99.90
28171;DHT22;15458;53.346;-1.688;2024-02-16T13:54:40;15.20;99.90
28171;DHT22;15458;53.346;-1.688;2024-02-16T13:57:06;15.00;99.90
28171;DHT22;15458;53.346;-1.688;2024-02-16T13:59:33;14.80;99.90
28171;DHT22;15458;53.346;-1.688;2024-02-16T14:02:01;14.60;99.90
28171;DHT22;15458;53.346;-1.688;2024-02-16T14:04:28;14.30;99.90
28171;DHT22;15458;53.346;-1.688;2024-02-16T14:06:54;14.20;99.90
28171;DHT22;15458;53.346;-1.688;2024-02-16T14:09:20;14.20;99.90
28171;DHT22;15458;53.346;-1.688;2024-02-16T14:11:46;14.30;99.90
28171;DHT22;15458;53.346;-1.688;2024-02-16T14:14:12;14.40;99.90
28171;DHT22;15458;53.346;-1.688;2024-02-16T14:16:38;14.60;99.90
28171;DHT22;15458;53.346;-1.688;2024-02-16T14:19:05;15.00;99.90
28171;DHT22;15458;53.346;-1.688;2024-02-16T14:21:31;15.30;99.90
28171;DHT22;15458;53.346;-1.688;2024-02-16T14:23:58;15.50;99.90
28171;DHT22;15458;53.346;-1.688;2024-02-16T14:26:24;15.50;99.90
28171;DHT22;15458;53.346;-1.688;2024-02-16T14:28:53;15.60;99.90
28171;DHT22;15458;53.346;-1.688;2024-02-16T14:31:21;15.70;99.90
28171;DHT22;15458;53.346;-1.688;2024-02-16T14:33:50;15.70;99.90
28171;DHT22;15458;53.346;-1.688;2024-02-16T14:36:16;15.60;99.90
28171;DHT22;15458;53.346;-1.688;2024-02-16T14:38:45;15.30;99.90
28171;DHT22;15458;53.346;-1.688;2024-02-16T14:41:10;15.00;99.90
28171;DHT22;15458;53.346;-1.688;2024-02-16T14:43:36;14.80;99.90
28171;DHT22;15458;53.346;-1.688;2024-02-16T14:46:02;14.70;99.90
28171;DHT22;15458;53.346;-1.688;2024-02-16T14:48:29;14.60;99.90
28171;DHT22;15458;53.346;-1.688;2024-02-16T14:50:55;14.60;99.90
28171;DHT22;15458;53.346;-1.688;2024-02-16T14:53:23;14.40;99.90
28171;DHT22;15458;53.346;-1.688;2024-02-16T14:55:49;14.30;99.90
28171;DHT22;15458;53.346;-1.688;2024-02-16T14:58:16;14.10;99.90
28171;DHT22;15458;53.346;-1.688;2024-02-16T15:00:42;13.80;99.90
28171;DHT22;15458;53.346;-1.688;2024-02-16T15:03:12;13.60;99.90
28171;DHT22;15458;53.346;-1.688;2024-02-16T15:05:39;13.40;99.90
28171;DHT22;15458;53.346;-1.688;2024-02-16T15:08:06;13.20;99.90
28171;DHT22;15458;53.346;-1.688;2024-02-16T15:10:32;13.00;99.90
28171;DHT22;15458;53.346;-1.688;2024-02-16T15:12:58;12.90;99.90
28171;DHT22;15458;53.346;-1.688;2024-02-16T15:15:23;12.70;99.90
28171;DHT22;15458;53.346;-1.688;2024-02-16T15:17:49;12.60;99.90
28171;DHT22;15458;53.346;-1.688;2024-02-16T15:20:15;12.50;99.90
28171;DHT22;15458;53.346;-1.688;2024-02-16T15:22:41;12.40;99.90
28171;DHT22;15458;53.346;-1.688;2024-02-16T15:25:08;12.40;99.90
28171;DHT22;15458;53.346;-1.688;2024-02-16T15:27:34;12.30;99.90